sensor_id;sensor_type;location;lat;lon;timestamp;temperature;humidity
23713;DHT22;12035;49.978;8.298;2024-02-16T00:00:20;15.20;83.10
23713;DHT22;12035;49.978;8.298;2024-02-16T00:05:18;15.20;83.40
23713;DHT22;12035;49.978;8.298;2024-02-16T00:10:16;15.10;83.50
23713;DHT22;12035;49.978;8.298;2024-02-16T00:15:15;15.10;83.70
23713;DHT22;12035;49.978;8.298;2024-02-16T00:20:12;15.10;83.80
23713;DHT22;12035;49.978;8.298;2024-02-16T00:25:10;15.10;84.00
23713;DHT22;12035;49.978;8.298;2024-02-16T00:30:09;15.10;84.20
23713;DHT22;12035;49.978;8.298;2024-02-16T00:35:07;15.10;84.20
23713;DHT22;12035;49.978;8.298;2024-02-16T00:40:05;15.10;84.10
23713;DHT22;12035;49.978;8.298;2024-02-16T00:45:05;15.00;84.00
23713;DHT22;12035;49.978;8.298;2024-02-16T00:50:03;15.00;84.00
23713;DHT22;12035;49.978;8.298;2024-02-16T00:55:04;15.00;84.20
23713;DHT22;12035;49.978;8.298;2024-02-16T01:00:03;15.00;84.20
23713;DHT22;12035;49.978;8.298;2024-02-16T01:05:02;15.00;84.30
23713;DHT22;12035;49.978;8.298;2024-02-16T01:09:59;15.00;84.30
23713;DHT22;12035;49.978;8.298;2024-02-16T01:14:58;15.00;84.30
23713;DHT22;12035;49.978;8.298;2024-02-16T01:19:57;14.90;84.20
23713;DHT22;12035;49.978;8.298;2024-02-16T01:24:54;14.90;84.20
23713;DHT22;12035;49.978;8.298;2024-02-16T01:29:51;14.90;84.20
23713;DHT22;12035;49.978;8.298;2024-02-16T01:34:48;14.90;84.90
23713;DHT22;12035;49.978;8.298;2024-02-16T01:39:47;14.80;84.10
23713;DHT22;12035;49.978;8.298;2024-02-16T01:44:44;14.80;84.10
23713;DHT22;12035;49.978;8.298;2024-02-16T01:49:41;14.80;84.20
23713;DHT22;12035;49.978;8.298;2024-02-16T01:54:38;14.70;84.20
23713;DHT22;12035;49.978;8.298;2024-02-16T01:59:36;14.70;85.20
23713;DHT22;12035;49.978;8.298;2024-02-16T02:04:36;14.70;84.30
23713;DHT22;12035;49.978;8.298;2024-02-16T02:09:33;14.70;84.30
23713;DHT22;12035;49.978;8.298;2024-02-16T02:14:30;14.70;84.40
23713;DHT22;12035;49.978;8.298;2024-02-16T02:19:29;14.70;84.30
23713;DHT22;12035;49.978;8.298;2024-02-16T02:24:30;14.60;84.20
23713;DHT22;12035;49.978;8.298;2024-02-16T02:29:27;14.60;84.20
23713;DHT22;12035;49.978;8.298;2024-02-16T02:34:25;14.60;84.20
23713;DHT22;12035;49.978;8.298;2024-02-16T02:39:23;14.50;84.10
23713;DHT22;12035;49.978;8.298;2024-02-16T02:44:21;14.50;84.30
23713;DHT22;12035;49.978;8.298;2024-02-16T02:49:18;14.50;84.30
23713;DHT22;12035;49.978;8.298;2024-02-16T02:54:15;14.50;84.30
23713;DHT22;12035;49.978;8.298;2024-02-16T02:59:12;14.50;85.20
23713;DHT22;12035;49.978;8.298;2024-02-16T03:04:10;14.50;84.50
23713;DHT22;12035;49.978;8.298;2024-02-16T03:09:07;14.50;84.50
23713;DHT22;12035;49.978;8.298;2024-02-16T03:14:05;14.50;84.30
23713;DHT22;12035;49.978;8.298;2024-02-16T03:19:05;14.50;84.40
23713;DHT22;12035;49.978;8.298;2024-02-16T03:24:06;14.50;85.20
23713;DHT22;12035;49.978;8.298;2024-02-16T03:29:03;14.50;84.30
23713;DHT22;12035;49.978;8.298;2024-02-16T03:34:00;14.50;84.30
23713;DHT22;12035;49.978;8.298;2024-02-16T03:38:57;14.60;84.30
23713;DHT22;12035;49.978;8.298;2024-02-16T03:43:55;14.60;84.50
23713;DHT22;12035;49.978;8.298;2024-02-16T03:48:54;14.60;84.50
23713;DHT22;12035;49.978;8.298;2024-02-16T03:53:51;14.60;84.40
23713;DHT22;12035;49.978;8.298;2024-02-16T03:58:48;14.60;84.20
23713;DHT22;12035;49.978;8.298;2024-02-16T04:03:46;14.60;84.10
23713;DHT22;12035;49.978;8.298;2024-02-16T04:08:43;14.60;84.10
23713;DHT22;12035;49.978;8.298;2024-02-16T04:13:40;14.60;84.20
23713;DHT22;12035;49.978;8.298;2024-02-16T04:18:37;14.60;84.20
23713;DHT22;12035;49.978;8.298;2024-02-16T04:23:37;14.60;84.30
23713;DHT22;12035;49.978;8.298;2024-02-16T04:28:34;14.60;85.50
23713;DHT22;12035;49.978;8.298;2024-02-16T04:33:31;14.60;84.90
23713;DHT22;12035;49.978;8.298;2024-02-16T04:38:28;14.50;85.10
23713;DHT22;12035;49.978;8.298;2024-02-16T04:43:26;14.50;85.30
23713;DHT22;12035;49.978;8.298;2024-02-16T04:48:23;14.50;85.50
23713;DHT22;12035;49.978;8.298;2024-02-16T04:53:20;14.50;85.50
23713;DHT22;12035;49.978;8.298;2024-02-16T04:58:17;14.50;85.70
23713;DHT22;12035;49.978;8.298;2024-02-16T05:03:16;14.50;85.90
23713;DHT22;12035;49.978;8.298;2024-02-16T05:08:14;14.50;86.10
23713;DHT22;12035;49.978;8.298;2024-02-16T05:13:11;14.40;86.00
23713;DHT22;12035;49.978;8.298;2024-02-16T05:18:09;14.40;86.30
23713;DHT22;12035;49.978;8.298;2024-02-16T05:23:09;14.40;86.20
23713;DHT22;12035;49.978;8.298;2024-02-16T05:28:07;14.40;86.40
23713;DHT22;12035;49.978;8.298;2024-02-16T05:33:04;14.40;86.40
23713;DHT22;12035;49.978;8.298;2024-02-16T05:38:01;14.30;86.30
23713;DHT22;12035;49.978;8.298;2024-02-16T05:43:07;14.20;86.20
23713;DHT22;12035;49.978;8.298;2024-02-16T05:48:05;14.20;86.70
23713;DHT22;12035;49.978;8.298;2024-02-16T05:53:05;14.20;86.80
23713;DHT22;12035;49.978;8.298;2024-02-16T05:58:07;14.20;87.00
23713;DHT22;12035;49.978;8.298;2024-02-16T06:03:04;14.20;87.10
23713;DHT22;12035;49.978;8.298;2024-02-16T06:08:03;14.30;87.00
23713;DHT22;12035;49.978;8.298;2024-02-16T06:13:01;14.30;86.90
23713;DHT22;12035;49.978;8.298;2024-02-16T06:18:00;14.30;86.70
23713;DHT22;12035;49.978;8.298;2024-02-16T06:22:57;14.30;86.70
23713;DHT22;12035;49.978;8.298;2024-02-16T06:27:54;14.30;86.70
23713;DHT22;12035;49.978;8.298;2024-02-16T06:32:53;14.20;86.50
23713;DHT22;12035;49.978;8.298;2024-02-16T06:37:52;14.20;86.70
23713;DHT22;12035;49.978;8.298;2024-02-16T06:42:49;14.20;86.70
23713;DHT22;12035;49.978;8.298;2024-02-16T06:47:46;14.20;86.60
23713;DHT22;12035;49.978;8.298;2024-02-16T06:52:43;14.20;86.50
23713;DHT22;12035;49.978;8.298;2024-02-16T06:57:41;14.10;86.50
23713;DHT22;12035;49.978;8.298;2024-02-16T07:02:39;14.10;86.50
23713;DHT22;12035;49.978;8.298;2024-02-16T07:07:37;14.20;86.50
23713;DHT22;12035;49.978;8.298;2024-02-16T07:12:34;14.20;87.30
23713;DHT22;12035;49.978;8.298;2024-02-16T07:17:33;14.20;86.60
23713;DHT22;12035;49.978;8.298;2024-02-16T07:22:33;14.20;86.50
23713;DHT22;12035;49.978;8.298;2024-02-16T07:27:30;14.30;86.70
23713;DHT22;12035;49.978;8.298;2024-02-16T07:32:27;14.30;86.40
23713;DHT22;12035;49.978;8.298;2024-02-16T07:37:26;14.30;86.40
23713;DHT22;12035;49.978;8.298;2024-02-16T07:42:23;14.40;86.50
23713;DHT22;12035;49.978;8.298;2024-02-16T07:47:20;14.40;86.50
23713;DHT22;12035;49.978;8.298;2024-02-16T07:52:17;14.50;86.50
23713;DHT22;12035;49.978;8.298;2024-02-16T07:57:15;14.60;86.50
23713;DHT22;12035;49.978;8.298;2024-02-16T08:02:12;14.60;86.10
23713;DHT22;12035;49.978;8.298;2024-02-16T08:07:11;14.70;85.80
23713;DHT22;12035;49.978;8.298;2024-02-16T08:12:08;14.70;85.90
23713;DHT22;12035;49.978;8.298;2024-02-16T08:17:07;14.70;85.80
23713;DHT22;12035;49.978;8.298;2024-02-16T08:22:08;14.70;85.50
23713;DHT22;12035;49.978;8.298;2024-02-16T08:27:05;14.70;85.40
23713;DHT22;12035;49.978;8.298;2024-02-16T08:32:02;14.60;85.30
23713;DHT22;12035;49.978;8.298;2024-02-16T08:37:03;14.60;85.40
23713;DHT22;12035;49.978;8.298;2024-02-16T08:42:01;14.60;85.50
23713;DHT22;12035;49.978;8.298;2024-02-16T08:46:58;14.60;85.60
23713;DHT22;12035;49.978;8.298;2024-02-16T08:51:56;14.60;85.70
23713;DHT22;12035;49.978;8.298;2024-02-16T08:56:55;14.60;85.90
23713;DHT22;12035;49.978;8.298;2024-02-16T09:01:52;14.60;86.20
23713;DHT22;12035;49.978;8.298;2024-02-16T09:06:50;14.70;86.70
23713;DHT22;12035;49.978;8.298;2024-02-16T09:11:47;14.80;87.20
23713;DHT22;12035;49.978;8.298;2024-02-16T09:16:48;14.90;87.60
23713;DHT22;12035;49.978;8.298;2024-02-16T09:21:48;15.00;87.50
23713;DHT22;12035;49.978;8.298;2024-02-16T09:26:46;15.10;87.30
23713;DHT22;12035;49.978;8.298;2024-02-16T09:31:49;15.30;87.20
23713;DHT22;12035;49.978;8.298;2024-02-16T09:36:46;15.30;87.00
23713;DHT22;12035;49.978;8.298;2024-02-16T09:41:44;15.40;86.80
23713;DHT22;12035;49.978;8.298;2024-02-16T09:46:47;15.50;86.70
23713;DHT22;12035;49.978;8.298;2024-02-16T09:51:44;15.50;86.50
23713;DHT22;12035;49.978;8.298;2024-02-16T09:56:41;15.60;86.40
23713;DHT22;12035;49.978;8.298;2024-02-16T10:01:40;15.60;86.30
23713;DHT22;12035;49.978;8.298;2024-02-16T10:06:48;15.60;86.10
23713;DHT22;12035;49.978;8.298;2024-02-16T10:11:45;15.70;86.00
23713;DHT22;12035;49.978;8.298;2024-02-16T10:16:43;15.70;85.90
23713;DHT22;12035;49.978;8.298;2024-02-16T10:21:40;15.70;86.00
23713;DHT22;12035;49.978;8.298;2024-02-16T10:26:38;15.80;86.10
23713;DHT22;12035;49.978;8.298;2024-02-16T10:31:36;15.90;85.90
23713;DHT22;12035;49.978;8.298;2024-02-16T10:36:37;15.90;85.70
23713;DHT22;12035;49.978;8.298;2024-02-16T10:41:41;15.90;85.30
23713;DHT22;12035;49.978;8.298;2024-02-16T10:46:38;16.00;85.30
23713;DHT22;12035;49.978;8.298;2024-02-16T10:51:38;16.00;85.10
23713;DHT22;12035;49.978;8.298;2024-02-16T10:56:40;16.10;84.70
23713;DHT22;12035;49.978;8.298;2024-02-16T11:01:38;16.10;84.30
23713;DHT22;12035;49.978;8.298;2024-02-16T11:06:46;16.10;84.20
23713;DHT22;12035;49.978;8.298;2024-02-16T11:11:52;16.20;83.70
23713;DHT22;12035;49.978;8.298;2024-02-16T11:16:53;16.20;83.40
23713;DHT22;12035;49.978;8.298;2024-02-16T11:21:57;16.30;83.70
23713;DHT22;12035;49.978;8.298;2024-02-16T11:26:55;16.30;83.90
23713;DHT22;12035;49.978;8.298;2024-02-16T11:31:53;16.40;84.00
23713;DHT22;12035;49.978;8.298;2024-02-16T11:36:52;16.50;83.90
23713;DHT22;12035;49.978;8.298;2024-02-16T11:42:01;16.60;83.50
23713;DHT22;12035;49.978;8.298;2024-02-16T11:46:59;16.70;82.60
23713;DHT22;12035;49.978;8.298;2024-02-16T11:51:56;16.70;82.90
23713;DHT22;12035;49.978;8.298;2024-02-16T11:56:53;16.70;83.00
23713;DHT22;12035;49.978;8.298;2024-02-16T12:01:53;16.70;83.00
23713;DHT22;12035;49.978;8.298;2024-02-16T12:06:52;16.80;83.10
23713;DHT22;12035;49.978;8.298;2024-02-16T12:11:50;16.80;83.30
23713;DHT22;12035;49.978;8.298;2024-02-16T12:16:49;16.90;83.80
23713;DHT22;12035;49.978;8.298;2024-02-16T12:21:50;17.10;83.90
23713;DHT22;12035;49.978;8.298;2024-02-16T12:26:47;17.30;83.40
23713;DHT22;12035;49.978;8.298;2024-02-16T12:31:45;17.50;82.80
23713;DHT22;12035;49.978;8.298;2024-02-16T12:36:44;17.60;82.00
23713;DHT22;12035;49.978;8.298;2024-02-16T12:41:43;17.80;81.90
23713;DHT22;12035;49.978;8.298;2024-02-16T12:46:40;18.00;81.40
23713;DHT22;12035;49.978;8.298;2024-02-16T12:51:38;18.10;81.40
23713;DHT22;12035;49.978;8.298;2024-02-16T12:56:35;18.20;81.10
23713;DHT22;12035;49.978;8.298;2024-02-16T13:01:33;18.30;80.40
23713;DHT22;12035;49.978;8.298;2024-02-16T13:06:30;18.40;79.80
23713;DHT22;12035;49.978;8.298;2024-02-16T13:11:27;18.50;79.50
23713;DHT22;12035;49.978;8.298;2024-02-16T13:16:24;18.50;79.90
23713;DHT22;12035;49.978;8.298;2024-02-16T13:21:23;18.60;80.00
23713;DHT22;12035;49.978;8.298;2024-02-16T13:26:20;18.60;79.50
23713;DHT22;12035;49.978;8.298;2024-02-16T13:31:17;18.70;79.70
23713;DHT22;12035;49.978;8.298;2024-02-16T13:36:15;18.70;79.20
23713;DHT22;12035;49.978;8.298;2024-02-16T13:41:13;18.70;78.80
23713;DHT22;12035;49.978;8.298;2024-02-16T13:46:10;18.80;79.00
23713;DHT22;12035;49.978;8.298;2024-02-16T13:51:07;18.80;77.50
23713;DHT22;12035;49.978;8.298;2024-02-16T13:56:05;18.80;77.10
23713;DHT22;12035;49.978;8.298;2024-02-16T14:01:04;18.80;76.70
23713;DHT22;12035;49.978;8.298;2024-02-16T14:06:02;18.70;76.60
23713;DHT22;12035;49.978;8.298;2024-02-16T14:10:59;18.70;76.60
23713;DHT22;12035;49.978;8.298;2024-02-16T14:15:56;18.70;76.60
23713;DHT22;12035;49.978;8.298;2024-02-16T14:20:54;18.70;76.90
23713;DHT22;12035;49.978;8.298;2024-02-16T14:25:51;18.60;77.00
23713;DHT22;12035;49.978;8.298;2024-02-16T14:30:48;18.60;77.00
23713;DHT22;12035;49.978;8.298;2024-02-16T14:35:46;18.60;77.60
23713;DHT22;12035;49.978;8.298;2024-02-16T14:40:45;18.50;77.50
23713;DHT22;12035;49.978;8.298;2024-02-16T14:45:42;18.40;77.70
23713;DHT22;12035;49.978;8.298;2024-02-16T14:50:39;18.40;77.60
23713;DHT22;12035;49.978;8.298;2024-02-16T14:55:36;18.40;77.70
23713;DHT22;12035;49.978;8.298;2024-02-16T15:00:35;18.40;77.60
23713;DHT22;12035;49.978;8.298;2024-02-16T15:05:33;18.30;77.70
23713;DHT22;12035;49.978;8.298;2024-02-16T15:10:30;18.20;77.80
23713;DHT22;12035;49.978;8.298;2024-02-16T15:15:27;18.20;78.10
23713;DHT22;12035;49.978;8.298;2024-02-16T15:20:26;18.10;78.20
23713;DHT22;12035;49.978;8.298;2024-02-16T15:25:24;18.10;78.40
23713;DHT22;12035;49.978;8.298;2024-02-16T15:30:23;18.00;78.60
23713;DHT22;12035;49.978;8.298;2024-02-16T15:35:20;18.00;79.00
23713;DHT22;12035;49.978;8.298;2024-02-16T15:40:18;18.00;79.20
23713;DHT22;12035;49.978;8.298;2024-02-16T15:45:15;18.00;79.40
23713;DHT22;12035;49.978;8.298;2024-02-16T15:50:16;17.90;79.50
23713;DHT22;12035;49.978;8.298;2024-02-16T15:55:13;17.90;79.80
23713;DHT22;12035;49.978;8.298;2024-02-16T16:00:13;17.80;79.90
23713;DHT22;12035;49.978;8.298;2024-02-16T16:05:11;17.80;80.10
23713;DHT22;12035;49.978;8.298;2024-02-16T16:10:09;17.80;80.20
23713;DHT22;12035;49.978;8.298;2024-02-16T16:15:07;17.70;80.30
23713;DHT22;12035;49.978;8.298;2024-02-16T16:20:07;17.70;80.40
23713;DHT22;12035;49.978;8.298;2024-02-16T16:25:05;17.70;80.60
23713;DHT22;12035;49.978;8.298;2024-02-16T16:30:03;17.70;80.70
23713;DHT22;12035;49.978;8.298;2024-02-16T16:35:02;17.70;80.90
23713;DHT22;12035;49.978;8.298;2024-02-16T16:40:01;17.60;80.90
23713;DHT22;12035;49.978;8.298;2024-02-16T16:44:58;17.60;81.10
23713;DHT22;12035;49.978;8.298;2024-02-16T16:49:55;17.60;81.50
23713;DHT22;12035;49.978;8.298;2024-02-16T16:54:52;17.50;81.80
23713;DHT22;12035;49.978;8.298;2024-02-16T16:59:51;17.50;82.10
23713;DHT22;12035;49.978;8.298;2024-02-16T17:04:48;17.40;82.60
23713;DHT22;12035;49.978;8.298;2024-02-16T17:09:46;17.40;83.00
23713;DHT22;12035;49.978;8.298;2024-02-16T17:14:48;17.30;83.30
23713;DHT22;12035;49.978;8.298;2024-02-16T17:19:46;17.20;83.70
23713;DHT22;12035;49.978;8.298;2024-02-16T17:24:43;17.20;84.00
23713;DHT22;12035;49.978;8.298;2024-02-16T17:29:40;17.10;84.30
23713;DHT22;12035;49.978;8.298;2024-02-16T17:34:38;17.10;84.50
23713;DHT22;12035;49.978;8.298;2024-02-16T17:39:36;17.00;84.70
23713;DHT22;12035;49.978;8.298;2024-02-16T17:44:33;17.00;85.20
23713;DHT22;12035;49.978;8.298;2024-02-16T17:49:30;16.90;85.40
23713;DHT22;12035;49.978;8.298;2024-02-16T17:54:27;16.90;85.70
23713;DHT22;12035;49.978;8.298;2024-02-16T17:59:26;16.90;86.00
23713;DHT22;12035;49.978;8.298;2024-02-16T18:04:23;16.80;86.40
23713;DHT22;12035;49.978;8.298;2024-02-16T18:09:22;16.80;86.50
23713;DHT22;12035;49.978;8.298;2024-02-16T18:14:18;16.70;86.80
23713;DHT22;12035;49.978;8.298;2024-02-16T18:19:17;16.70;87.10
23713;DHT22;12035;49.978;8.298;2024-02-16T18:24:14;16.60;87.60
23713;DHT22;12035;49.978;8.298;2024-02-16T18:29:11;16.50;87.80
23713;DHT22;12035;49.978;8.298;2024-02-16T18:34:08;16.50;88.10
23713;DHT22;12035;49.978;8.298;2024-02-16T18:39:07;16.50;88.20
23713;DHT22;12035;49.978;8.298;2024-02-16T18:44:04;16.40;88.70
23713;DHT22;12035;49.978;8.298;2024-02-16T18:49:02;16.40;88.70
23713;DHT22;12035;49.978;8.298;2024-02-16T18:53:59;16.40;88.90
23713;DHT22;12035;49.978;8.298;2024-02-16T18:58:58;16.40;89.10
23713;DHT22;12035;49.978;8.298;2024-02-16T19:03:55;16.40;89.30
23713;DHT22;12035;49.978;8.298;2024-02-16T19:08:52;16.40;89.30
23713;DHT22;12035;49.978;8.298;2024-02-16T19:13:49;16.30;89.50
23713;DHT22;12035;49.978;8.298;2024-02-16T19:18:48;16.40;89.70
23713;DHT22;12035;49.978;8.298;2024-02-16T19:23:45;16.30;90.00
23713;DHT22;12035;49.978;8.298;2024-02-16T19:28:42;16.30;90.00
23713;DHT22;12035;49.978;8.298;2024-02-16T19:33:39;16.30;90.10
23713;DHT22;12035;49.978;8.298;2024-02-16T19:38:38;16.30;90.20
23713;DHT22;12035;49.978;8.298;2024-02-16T19:43:35;16.30;90.30
23713;DHT22;12035;49.978;8.298;2024-02-16T19:48:32;16.20;90.30
23713;DHT22;12035;49.978;8.298;2024-02-16T19:53:29;16.20;90.30
23713;DHT22;12035;49.978;8.298;2024-02-16T19:58:27;16.20;90.40
23713;DHT22;12035;49.978;8.298;2024-02-16T20:03:24;16.20;90.60
23713;DHT22;12035;49.978;8.298;2024-02-16T20:08:22;16.20;90.60
23713;DHT22;12035;49.978;8.298;2024-02-16T20:13:19;16.20;90.70
23713;DHT22;12035;49.978;8.298;2024-02-16T20:18:17;16.20;90.70
23713;DHT22;12035;49.978;8.298;2024-02-16T20:23:21;16.10;90.80
23713;DHT22;12035;49.978;8.298;2024-02-16T20:28:18;16.10;90.90
23713;DHT22;12035;49.978;8.298;2024-02-16T20:33:17;16.10;90.90
23713;DHT22;12035;49.978;8.298;2024-02-16T20:38:14;16.10;91.00
23713;DHT22;12035;49.978;8.298;2024-02-16T20:43:11;16.10;91.00
23713;DHT22;12035;49.978;8.298;2024-02-16T20:48:08;16.10;91.10
23713;DHT22;12035;49.978;8.298;2024-02-16T20:53:07;16.00;91.10
23713;DHT22;12035;49.978;8.298;2024-02-16T20:58:04;16.00;91.10
23713;DHT22;12035;49.978;8.298;2024-02-16T21:03:02;16.00;91.10
23713;DHT22;12035;49.978;8.298;2024-02-16T21:07:59;15.90;91.10
23713;DHT22;12035;49.978;8.298;2024-02-16T21:12:58;15.90;91.20
23713;DHT22;12035;49.978;8.298;2024-02-16T21:17:55;15.80;91.40
23713;DHT22;12035;49.978;8.298;2024-02-16T21:22:52;15.80;91.40
23713;DHT22;12035;49.978;8.298;2024-02-16T21:27:49;15.80;91.50
23713;DHT22;12035;49.978;8.298;2024-02-16T21:32:48;15.80;91.60
23713;DHT22;12035;49.978;8.298;2024-02-16T21:37:46;15.80;91.60
23713;DHT22;12035;49.978;8.298;2024-02-16T21:42:43;15.80;91.50
23713;DHT22;12035;49.978;8.298;2024-02-16T21:47:40;15.80;91.50
23713;DHT22;12035;49.978;8.298;2024-02-16T21:52:39;15.90;91.50
23713;DHT22;12035;49.978;8.298;2024-02-16T21:57:36;15.90;91.30
23713;DHT22;12035;49.978;8.298;2024-02-16T22:02:33;16.00;91.20
23713;DHT22;12035;49.978;8.298;2024-02-16T22:07:30;16.00;91.20
23713;DHT22;12035;49.978;8.298;2024-02-16T22:12:28;16.10;91.00
23713;DHT22;12035;49.978;8.298;2024-02-16T22:17:25;16.00;90.90
23713;DHT22;12035;49.978;8.298;2024-02-16T22:22:22;16.10;90.90
23713;DHT22;12035;49.978;8.298;2024-02-16T22:27:19;16.10;90.80
23713;DHT22;12035;49.978;8.298;2024-02-16T22:32:18;16.10;90.50
23713;DHT22;12035;49.978;8.298;2024-02-16T22:37:15;16.10;90.30
23713;DHT22;12035;49.978;8.298;2024-02-16T22:42:12;16.00;90.10
23713;DHT22;12035;49.978;8.298;2024-02-16T22:47:09;16.10;90.00
23713;DHT22;12035;49.978;8.298;2024-02-16T22:52:08;16.10;89.70
23713;DHT22;12035;49.978;8.298;2024-02-16T22:57:05;16.00;89.40
23713;DHT22;12035;49.978;8.298;2024-02-16T23:02:02;16.00;89.00
23713;DHT22;12035;49.978;8.298;2024-02-16T23:06:59;16.00;88.70
23713;DHT22;12035;49.978;8.298;2024-02-16T23:11:59;15.90;88.30
23713;DHT22;12035;49.978;8.298;2024-02-16T23:16:56;15.90;88.30
23713;DHT22;12035;49.978;8.298;2024-02-16T23:21:53;15.90;88.00
23713;DHT22;12035;49.978;8.298;2024-02-16T23:26:50;15.90;87.60
23713;DHT22;12035;49.978;8.298;2024-02-16T23:31:49;15.90;87.30
23713;DHT22;12035;49.978;8.298;2024-02-16T23:36:47;15.80;87.00
23713;DHT22;12035;49.978;8.298;2024-02-16T23:41:44;15.80;87.00
23713;DHT22;12035;49.978;8.298;2024-02-16T23:46:41;15.80;86.50
23713;DHT22;12035;49.978;8.298;2024-02-16T23:51:39;15.80;86.30
23713;DHT22;12035;49.978;8.298;2024-02-16T23:56:36;15.70;86.00
